sensor_id;sensor_type;location;lat;lon;timestamp;temperature;humidity
1429;DHT22;708;51.442;7.016;2022-12-07T00:00:53;8.50;1.00
1429;DHT22;708;51.442;7.016;2022-12-07T00:03:20;8.50;1.00
1429;DHT22;708;51.442;7.016;2022-12-07T00:05:46;8.50;1.00
1429;DHT22;708;51.442;7.016;2022-12-07T00:08:13;8.50;1.00
1429;DHT22;708;51.442;7.016;2022-12-07T00:10:40;8.60;1.00
1429;DHT22;708;51.442;7.016;2022-12-07T00:13:07;8.60;1.00
1429;DHT22;708;51.442;7.016;2022-12-07T00:15:35;8.50;1.00
1429;DHT22;708;51.442;7.016;2022-12-07T00:18:02;8.50;1.00
1429;DHT22;708;51.442;7.016;2022-12-07T00:20:29;8.50;1.00
1429;DHT22;708;51.442;7.016;2022-12-07T00:22:56;8.50;1.00
1429;DHT22;708;51.442;7.016;2022-12-07T00:25:23;8.40;1.00
1429;DHT22;708;51.442;7.016;2022-12-07T00:27:49;8.50;1.00
1429;DHT22;708;51.442;7.016;2022-12-07T00:30:16;8.50;1.00
1429;DHT22;708;51.442;7.016;2022-12-07T00:32:45;8.60;1.00
1429;DHT22;708;51.442;7.016;2022-12-07T00:35:11;8.60;1.00
1429;DHT22;708;51.442;7.016;2022-12-07T00:37:38;8.60;1.00
1429;DHT22;708;51.442;7.016;2022-12-07T00:40:06;8.60;1.00
1429;DHT22;708;51.442;7.016;2022-12-07T00:42:33;8.60;1.00
1429;DHT22;708;51.442;7.016;2022-12-07T00:45:00;8.60;1.00
1429;DHT22;708;51.442;7.016;2022-12-07T00:47:26;8.60;1.00
1429;DHT22;708;51.442;7.016;2022-12-07T00:49:54;8.60;1.00
1429;DHT22;708;51.442;7.016;2022-12-07T00:52:21;8.60;1.00
1429;DHT22;708;51.442;7.016;2022-12-07T00:54:48;8.70;1.00
1429;DHT22;708;51.442;7.016;2022-12-07T00:57:15;8.70;1.00
1429;DHT22;708;51.442;7.016;2022-12-07T00:59:41;8.60;1.00
1429;DHT22;708;51.442;7.016;2022-12-07T01:02:08;8.70;1.00
1429;DHT22;708;51.442;7.016;2022-12-07T01:04:35;8.60;1.00
1429;DHT22;708;51.442;7.016;2022-12-07T01:07:03;8.60;1.00
1429;DHT22;708;51.442;7.016;2022-12-07T01:09:30;8.70;1.00
1429;DHT22;708;51.442;7.016;2022-12-07T01:11:56;8.70;1.00
1429;DHT22;708;51.442;7.016;2022-12-07T01:14:23;8.60;1.00
1429;DHT22;708;51.442;7.016;2022-12-07T01:16:50;8.70;1.00
1429;DHT22;708;51.442;7.016;2022-12-07T01:19:17;8.60;1.00
1429;DHT22;708;51.442;7.016;2022-12-07T01:21:43;8.70;1.00
1429;DHT22;708;51.442;7.016;2022-12-07T01:24:12;8.60;1.00
1429;DHT22;708;51.442;7.016;2022-12-07T01:26:38;8.70;1.00
1429;DHT22;708;51.442;7.016;2022-12-07T01:29:05;8.70;1.00
1429;DHT22;708;51.442;7.016;2022-12-07T01:31:33;8.60;1.00
1429;DHT22;708;51.442;7.016;2022-12-07T01:34:00;8.70;1.00
1429;DHT22;708;51.442;7.016;2022-12-07T01:36:29;8.70;1.00
1429;DHT22;708;51.442;7.016;2022-12-07T01:38:58;8.60;1.00
1429;DHT22;708;51.442;7.016;2022-12-07T01:41:29;8.60;1.00
1429;DHT22;708;51.442;7.016;2022-12-07T01:44:19;8.60;1.00
1429;DHT22;708;51.442;7.016;2022-12-07T01:46:47;8.60;1.00
1429;DHT22;708;51.442;7.016;2022-12-07T01:49:24;8.60;1.00
1429;DHT22;708;51.442;7.016;2022-12-07T01:51:53;8.60;1.00
1429;DHT22;708;51.442;7.016;2022-12-07T01:54:22;8.60;1.00
1429;DHT22;708;51.442;7.016;2022-12-07T01:56:52;8.70;1.00
1429;DHT22;708;51.442;7.016;2022-12-07T01:59:22;8.60;1.00
1429;DHT22;708;51.442;7.016;2022-12-07T02:01:50;8.60;1.00
1429;DHT22;708;51.442;7.016;2022-12-07T02:04:18;8.70;1.00
1429;DHT22;708;51.442;7.016;2022-12-07T02:06:45;8.60;1.00
1429;DHT22;708;51.442;7.016;2022-12-07T02:09:13;8.60;1.00
1429;DHT22;708;51.442;7.016;2022-12-07T02:11:40;8.50;1.00
1429;DHT22;708;51.442;7.016;2022-12-07T02:14:09;8.50;1.00
1429;DHT22;708;51.442;7.016;2022-12-07T02:16:46;8.50;1.00
1429;DHT22;708;51.442;7.016;2022-12-07T02:19:36;8.40;1.00
1429;DHT22;708;51.442;7.016;2022-12-07T02:22:22;8.40;1.00
1429;DHT22;708;51.442;7.016;2022-12-07T02:24:56;8.40;1.00
1429;DHT22;708;51.442;7.016;2022-12-07T02:27:42;8.40;1.00
1429;DHT22;708;51.442;7.016;2022-12-07T02:30:14;8.40;1.00
1429;DHT22;708;51.442;7.016;2022-12-07T02:32:46;8.40;1.00
1429;DHT22;708;51.442;7.016;2022-12-07T02:35:18;8.40;1.00
1429;DHT22;708;51.442;7.016;2022-12-07T02:37:53;8.40;1.00
1429;DHT22;708;51.442;7.016;2022-12-07T02:40:25;8.40;1.00
1429;DHT22;708;51.442;7.016;2022-12-07T02:43:00;8.40;1.00
1429;DHT22;708;51.442;7.016;2022-12-07T02:45:31;8.30;1.00
1429;DHT22;708;51.442;7.016;2022-12-07T02:48:00;8.40;1.00
1429;DHT22;708;51.442;7.016;2022-12-07T02:50:28;8.40;1.00
1429;DHT22;708;51.442;7.016;2022-12-07T02:52:55;8.40;1.00
1429;DHT22;708;51.442;7.016;2022-12-07T02:55:26;8.30;1.00
1429;DHT22;708;51.442;7.016;2022-12-07T02:58:17;8.30;1.00
1429;DHT22;708;51.442;7.016;2022-12-07T03:00:56;8.20;1.00
1429;DHT22;708;51.442;7.016;2022-12-07T03:03:25;8.30;1.00
1429;DHT22;708;51.442;7.016;2022-12-07T03:06:05;8.30;1.00
1429;DHT22;708;51.442;7.016;2022-12-07T03:08:39;8.30;1.00
1429;DHT22;708;51.442;7.016;2022-12-07T03:11:12;8.20;1.00
1429;DHT22;708;51.442;7.016;2022-12-07T03:13:45;8.20;1.00
1429;DHT22;708;51.442;7.016;2022-12-07T03:16:15;8.20;1.00
1429;DHT22;708;51.442;7.016;2022-12-07T03:18:46;8.10;1.00
1429;DHT22;708;51.442;7.016;2022-12-07T03:21:17;8.20;1.00
1429;DHT22;708;51.442;7.016;2022-12-07T03:23:51;8.10;1.00
1429;DHT22;708;51.442;7.016;2022-12-07T03:26:21;8.10;1.00
1429;DHT22;708;51.442;7.016;2022-12-07T03:28:52;8.00;1.00
1429;DHT22;708;51.442;7.016;2022-12-07T03:31:23;7.90;1.00
1429;DHT22;708;51.442;7.016;2022-12-07T03:33:58;7.80;1.00
1429;DHT22;708;51.442;7.016;2022-12-07T03:36:31;7.70;1.00
1429;DHT22;708;51.442;7.016;2022-12-07T03:39:03;7.70;1.00
1429;DHT22;708;51.442;7.016;2022-12-07T03:41:35;7.60;1.00
1429;DHT22;708;51.442;7.016;2022-12-07T03:44:03;7.60;1.00
1429;DHT22;708;51.442;7.016;2022-12-07T03:46:37;7.60;1.00
1429;DHT22;708;51.442;7.016;2022-12-07T03:49:12;7.50;1.00
1429;DHT22;708;51.442;7.016;2022-12-07T03:51:44;7.60;1.00
1429;DHT22;708;51.442;7.016;2022-12-07T03:54:16;7.60;1.00
1429;DHT22;708;51.442;7.016;2022-12-07T03:56:44;7.50;1.00
1429;DHT22;708;51.442;7.016;2022-12-07T03:59:13;7.60;1.00
1429;DHT22;708;51.442;7.016;2022-12-07T04:01:43;7.60;1.00
1429;DHT22;708;51.442;7.016;2022-12-07T04:04:10;7.60;1.00
1429;DHT22;708;51.442;7.016;2022-12-07T04:06:36;7.60;1.00
1429;DHT22;708;51.442;7.016;2022-12-07T04:09:03;7.70;1.00
1429;DHT22;708;51.442;7.016;2022-12-07T04:11:30;7.70;1.00
1429;DHT22;708;51.442;7.016;2022-12-07T04:13:57;7.80;1.00
1429;DHT22;708;51.442;7.016;2022-12-07T04:16:42;7.70;1.00
1429;DHT22;708;51.442;7.016;2022-12-07T04:19:09;7.70;1.00
1429;DHT22;708;51.442;7.016;2022-12-07T04:21:35;7.70;1.00
1429;DHT22;708;51.442;7.016;2022-12-07T04:24:03;7.60;1.00
1429;DHT22;708;51.442;7.016;2022-12-07T04:26:29;7.60;1.00
1429;DHT22;708;51.442;7.016;2022-12-07T04:28:56;7.60;1.00
1429;DHT22;708;51.442;7.016;2022-12-07T04:31:23;7.60;1.00
1429;DHT22;708;51.442;7.016;2022-12-07T04:33:51;7.60;1.00
1429;DHT22;708;51.442;7.016;2022-12-07T04:36:18;7.50;1.00
1429;DHT22;708;51.442;7.016;2022-12-07T04:38:45;7.50;1.00
1429;DHT22;708;51.442;7.016;2022-12-07T04:41:12;7.40;1.00
1429;DHT22;708;51.442;7.016;2022-12-07T04:43:39;7.40;1.00
1429;DHT22;708;51.442;7.016;2022-12-07T04:46:06;7.40;1.00
1429;DHT22;708;51.442;7.016;2022-12-07T04:48:33;7.30;1.00
1429;DHT22;708;51.442;7.016;2022-12-07T04:51:02;7.30;1.00
1429;DHT22;708;51.442;7.016;2022-12-07T04:53:29;7.30;1.00
1429;DHT22;708;51.442;7.016;2022-12-07T04:55:55;7.40;1.00
1429;DHT22;708;51.442;7.016;2022-12-07T04:58:22;7.30;1.00
1429;DHT22;708;51.442;7.016;2022-12-07T05:00:49;7.40;1.00
1429;DHT22;708;51.442;7.016;2022-12-07T05:03:15;7.30;1.00
1429;DHT22;708;51.442;7.016;2022-12-07T05:05:42;7.30;1.00
1429;DHT22;708;51.442;7.016;2022-12-07T05:08:10;7.20;1.00
1429;DHT22;708;51.442;7.016;2022-12-07T05:10:37;7.20;1.00
1429;DHT22;708;51.442;7.016;2022-12-07T05:13:04;7.20;1.00
1429;DHT22;708;51.442;7.016;2022-12-07T05:15:31;7.20;1.00
1429;DHT22;708;51.442;7.016;2022-12-07T05:17:58;7.20;1.00
1429;DHT22;708;51.442;7.016;2022-12-07T05:20:24;7.30;1.00
1429;DHT22;708;51.442;7.016;2022-12-07T05:22:51;7.20;1.00
1429;DHT22;708;51.442;7.016;2022-12-07T05:25:19;7.30;1.00
1429;DHT22;708;51.442;7.016;2022-12-07T05:27:46;7.20;1.00
1429;DHT22;708;51.442;7.016;2022-12-07T05:30:13;7.30;1.00
1429;DHT22;708;51.442;7.016;2022-12-07T05:32:40;7.40;1.00
1429;DHT22;708;51.442;7.016;2022-12-07T05:35:07;7.40;1.00
1429;DHT22;708;51.442;7.016;2022-12-07T05:37:34;7.50;1.00
1429;DHT22;708;51.442;7.016;2022-12-07T05:40:01;7.50;1.00
1429;DHT22;708;51.442;7.016;2022-12-07T05:42:29;7.60;1.00
1429;DHT22;708;51.442;7.016;2022-12-07T05:44:56;7.70;1.00
1429;DHT22;708;51.442;7.016;2022-12-07T05:47:22;7.70;1.00
1429;DHT22;708;51.442;7.016;2022-12-07T05:49:49;7.80;1.00
1429;DHT22;708;51.442;7.016;2022-12-07T05:52:17;7.80;1.00
1429;DHT22;708;51.442;7.016;2022-12-07T05:54:43;7.70;1.00
1429;DHT22;708;51.442;7.016;2022-12-07T05:57:10;7.70;1.00
1429;DHT22;708;51.442;7.016;2022-12-07T05:59:38;7.60;1.00
1429;DHT22;708;51.442;7.016;2022-12-07T06:02:06;7.60;1.00
1429;DHT22;708;51.442;7.016;2022-12-07T06:04:35;7.60;1.00
1429;DHT22;708;51.442;7.016;2022-12-07T06:07:03;7.70;1.00
1429;DHT22;708;51.442;7.016;2022-12-07T06:09:30;7.60;1.00
1429;DHT22;708;51.442;7.016;2022-12-07T06:11:57;7.70;1.00
1429;DHT22;708;51.442;7.016;2022-12-07T06:14:44;7.60;1.00
1429;DHT22;708;51.442;7.016;2022-12-07T06:17:11;7.60;1.00
1429;DHT22;708;51.442;7.016;2022-12-07T06:19:38;7.60;1.00
1429;DHT22;708;51.442;7.016;2022-12-07T06:22:05;7.60;1.00
1429;DHT22;708;51.442;7.016;2022-12-07T06:24:34;7.60;1.00
1429;DHT22;708;51.442;7.016;2022-12-07T06:27:01;7.50;1.00
1429;DHT22;708;51.442;7.016;2022-12-07T06:29:28;7.50;1.00
1429;DHT22;708;51.442;7.016;2022-12-07T06:31:56;7.50;1.00
1429;DHT22;708;51.442;7.016;2022-12-07T06:34:24;7.50;1.00
1429;DHT22;708;51.442;7.016;2022-12-07T06:36:51;7.60;1.00
1429;DHT22;708;51.442;7.016;2022-12-07T06:39:22;7.60;1.00
1429;DHT22;708;51.442;7.016;2022-12-07T06:41:49;7.60;1.00
1429;DHT22;708;51.442;7.016;2022-12-07T06:44:17;7.60;1.00
1429;DHT22;708;51.442;7.016;2022-12-07T06:46:44;7.60;1.00
1429;DHT22;708;51.442;7.016;2022-12-07T06:49:12;7.60;1.00
1429;DHT22;708;51.442;7.016;2022-12-07T06:51:39;7.60;1.00
1429;DHT22;708;51.442;7.016;2022-12-07T06:54:07;7.60;1.00
1429;DHT22;708;51.442;7.016;2022-12-07T06:56:34;7.60;1.00
1429;DHT22;708;51.442;7.016;2022-12-07T06:59:01;7.60;1.00
1429;DHT22;708;51.442;7.016;2022-12-07T07:01:27;7.60;1.00
1429;DHT22;708;51.442;7.016;2022-12-07T07:03:54;7.60;1.00
1429;DHT22;708;51.442;7.016;2022-12-07T07:06:23;7.60;1.00
1429;DHT22;708;51.442;7.016;2022-12-07T07:08:49;7.50;1.00
1429;DHT22;708;51.442;7.016;2022-12-07T07:11:16;7.50;1.00
1429;DHT22;708;51.442;7.016;2022-12-07T07:13:44;7.40;1.00
1429;DHT22;708;51.442;7.016;2022-12-07T07:16:10;7.40;1.00
1429;DHT22;708;51.442;7.016;2022-12-07T07:18:37;7.40;1.00
1429;DHT22;708;51.442;7.016;2022-12-07T07:21:04;7.30;1.00
1429;DHT22;708;51.442;7.016;2022-12-07T07:23:33;7.30;1.00
1429;DHT22;708;51.442;7.016;2022-12-07T07:26:00;7.30;1.00
1429;DHT22;708;51.442;7.016;2022-12-07T07:28:26;7.20;1.00
1429;DHT22;708;51.442;7.016;2022-12-07T07:30:53;7.20;1.00
1429;DHT22;708;51.442;7.016;2022-12-07T07:33:20;7.20;1.00
1429;DHT22;708;51.442;7.016;2022-12-07T07:35:47;7.10;1.00
1429;DHT22;708;51.442;7.016;2022-12-07T07:38:14;7.10;1.00
1429;DHT22;708;51.442;7.016;2022-12-07T07:40:42;7.20;1.00
1429;DHT22;708;51.442;7.016;2022-12-07T07:43:09;7.20;1.00
1429;DHT22;708;51.442;7.016;2022-12-07T07:45:35;7.30;1.00
1429;DHT22;708;51.442;7.016;2022-12-07T07:48:03;7.30;1.00
1429;DHT22;708;51.442;7.016;2022-12-07T07:50:30;7.40;1.00
1429;DHT22;708;51.442;7.016;2022-12-07T07:52:57;7.40;1.00
1429;DHT22;708;51.442;7.016;2022-12-07T07:55:24;7.50;1.00
1429;DHT22;708;51.442;7.016;2022-12-07T07:57:53;7.50;1.00
1429;DHT22;708;51.442;7.016;2022-12-07T08:00:20;7.60;1.00
1429;DHT22;708;51.442;7.016;2022-12-07T08:02:47;7.60;1.00
1429;DHT22;708;51.442;7.016;2022-12-07T08:05:16;7.70;1.00
1429;DHT22;708;51.442;7.016;2022-12-07T08:07:42;7.80;1.00
1429;DHT22;708;51.442;7.016;2022-12-07T08:10:11;7.80;1.00
1429;DHT22;708;51.442;7.016;2022-12-07T08:12:39;7.90;1.00
1429;DHT22;708;51.442;7.016;2022-12-07T08:15:29;8.00;1.00
1429;DHT22;708;51.442;7.016;2022-12-07T08:17:57;8.00;1.00
1429;DHT22;708;51.442;7.016;2022-12-07T08:20:23;8.10;1.00
1429;DHT22;708;51.442;7.016;2022-12-07T08:22:50;8.40;1.00
1429;DHT22;708;51.442;7.016;2022-12-07T08:25:18;8.50;1.00
1429;DHT22;708;51.442;7.016;2022-12-07T08:27:45;8.50;1.00
1429;DHT22;708;51.442;7.016;2022-12-07T08:30:12;8.50;1.00
1429;DHT22;708;51.442;7.016;2022-12-07T08:32:40;8.60;1.00
1429;DHT22;708;51.442;7.016;2022-12-07T08:35:08;8.60;1.00
1429;DHT22;708;51.442;7.016;2022-12-07T08:37:35;8.60;1.00
1429;DHT22;708;51.442;7.016;2022-12-07T08:40:03;8.60;1.00
1429;DHT22;708;51.442;7.016;2022-12-07T08:42:30;8.60;1.00
1429;DHT22;708;51.442;7.016;2022-12-07T08:45:04;8.60;1.00
1429;DHT22;708;51.442;7.016;2022-12-07T08:47:32;8.60;1.00
1429;DHT22;708;51.442;7.016;2022-12-07T08:50:01;8.60;1.00
1429;DHT22;708;51.442;7.016;2022-12-07T08:52:29;8.60;1.00
1429;DHT22;708;51.442;7.016;2022-12-07T08:54:56;8.50;1.00
1429;DHT22;708;51.442;7.016;2022-12-07T08:57:23;8.40;1.00
1429;DHT22;708;51.442;7.016;2022-12-07T08:59:50;8.40;1.00
1429;DHT22;708;51.442;7.016;2022-12-07T09:02:17;8.50;1.00
1429;DHT22;708;51.442;7.016;2022-12-07T09:04:44;8.60;1.00
1429;DHT22;708;51.442;7.016;2022-12-07T09:07:12;8.70;1.00
1429;DHT22;708;51.442;7.016;2022-12-07T09:09:39;8.70;1.00
1429;DHT22;708;51.442;7.016;2022-12-07T09:12:06;8.80;1.00
1429;DHT22;708;51.442;7.016;2022-12-07T09:14:32;8.90;1.00
1429;DHT22;708;51.442;7.016;2022-12-07T09:17:05;8.90;1.00
1429;DHT22;708;51.442;7.016;2022-12-07T09:19:32;8.90;1.00
1429;DHT22;708;51.442;7.016;2022-12-07T09:21:59;8.90;1.00
1429;DHT22;708;51.442;7.016;2022-12-07T09:24:27;8.80;1.00
1429;DHT22;708;51.442;7.016;2022-12-07T09:26:54;8.90;1.00
1429;DHT22;708;51.442;7.016;2022-12-07T09:29:21;9.00;1.00
1429;DHT22;708;51.442;7.016;2022-12-07T09:31:48;9.00;1.00
1429;DHT22;708;51.442;7.016;2022-12-07T09:34:14;9.10;1.00
1429;DHT22;708;51.442;7.016;2022-12-07T09:36:41;9.20;1.00
1429;DHT22;708;51.442;7.016;2022-12-07T09:39:08;9.20;1.00
1429;DHT22;708;51.442;7.016;2022-12-07T09:41:39;9.40;1.00
1429;DHT22;708;51.442;7.016;2022-12-07T09:44:11;9.50;1.00
1429;DHT22;708;51.442;7.016;2022-12-07T09:46:41;9.60;99.90
1429;DHT22;708;51.442;7.016;2022-12-07T09:49:12;9.70;99.90
1429;DHT22;708;51.442;7.016;2022-12-07T09:51:41;9.70;99.90
1429;DHT22;708;51.442;7.016;2022-12-07T09:54:08;9.70;99.90
1429;DHT22;708;51.442;7.016;2022-12-07T09:56:39;9.60;99.90
1429;DHT22;708;51.442;7.016;2022-12-07T09:59:06;9.60;99.90
1429;DHT22;708;51.442;7.016;2022-12-07T10:01:33;9.60;99.90
1429;DHT22;708;51.442;7.016;2022-12-07T10:04:08;9.60;99.90
1429;DHT22;708;51.442;7.016;2022-12-07T10:06:36;9.70;99.90
1429;DHT22;708;51.442;7.016;2022-12-07T10:09:09;9.80;99.90
1429;DHT22;708;51.442;7.016;2022-12-07T10:11:58;9.90;99.90
1429;DHT22;708;51.442;7.016;2022-12-07T10:14:28;10.00;99.90
1429;DHT22;708;51.442;7.016;2022-12-07T10:16:55;10.00;99.90
1429;DHT22;708;51.442;7.016;2022-12-07T10:19:25;10.10;99.90
1429;DHT22;708;51.442;7.016;2022-12-07T10:22:19;10.20;99.90
1429;DHT22;708;51.442;7.016;2022-12-07T10:24:47;10.40;99.90
1429;DHT22;708;51.442;7.016;2022-12-07T10:27:20;10.50;99.90
1429;DHT22;708;51.442;7.016;2022-12-07T10:29:50;10.70;99.90
1429;DHT22;708;51.442;7.016;2022-12-07T10:32:33;10.90;99.90
1429;DHT22;708;51.442;7.016;2022-12-07T10:35:20;11.10;20.50
1429;DHT22;708;51.442;7.016;2022-12-07T10:37:48;11.20;1.00
1429;DHT22;708;51.442;7.016;2022-12-07T10:40:26;11.30;1.00
1429;DHT22;708;51.442;7.016;2022-12-07T10:43:18;11.30;99.90
1429;DHT22;708;51.442;7.016;2022-12-07T10:46:13;11.30;1.00
1429;DHT22;708;51.442;7.016;2022-12-07T10:48:48;11.40;99.90
1429;DHT22;708;51.442;7.016;2022-12-07T10:51:24;11.30;99.90
1429;DHT22;708;51.442;7.016;2022-12-07T10:53:59;11.30;99.90
1429;DHT22;708;51.442;7.016;2022-12-07T10:56:43;11.30;99.90
1429;DHT22;708;51.442;7.016;2022-12-07T10:59:40;11.30;99.90
1429;DHT22;708;51.442;7.016;2022-12-07T11:02:24;11.10;99.90
1429;DHT22;708;51.442;7.016;2022-12-07T11:05:02;11.00;99.90
1429;DHT22;708;51.442;7.016;2022-12-07T11:07:41;10.90;1.00
1429;DHT22;708;51.442;7.016;2022-12-07T11:10:13;10.80;1.00
1429;DHT22;708;51.442;7.016;2022-12-07T11:12:52;10.80;1.00
1429;DHT22;708;51.442;7.016;2022-12-07T11:15:29;10.70;1.00
1429;DHT22;708;51.442;7.016;2022-12-07T11:18:06;10.80;1.00
1429;DHT22;708;51.442;7.016;2022-12-07T11:20:39;10.80;1.00
1429;DHT22;708;51.442;7.016;2022-12-07T11:23:16;10.80;1.00
1429;DHT22;708;51.442;7.016;2022-12-07T11:25:50;10.80;1.00
1429;DHT22;708;51.442;7.016;2022-12-07T11:28:26;10.80;1.00
1429;DHT22;708;51.442;7.016;2022-12-07T11:31:03;10.70;1.00
1429;DHT22;708;51.442;7.016;2022-12-07T11:33:38;10.60;1.00
1429;DHT22;708;51.442;7.016;2022-12-07T11:36:17;10.60;1.00
1429;DHT22;708;51.442;7.016;2022-12-07T11:38:53;10.40;1.00
1429;DHT22;708;51.442;7.016;2022-12-07T11:41:27;10.30;32.50
1429;DHT22;708;51.442;7.016;2022-12-07T11:43:57;10.20;99.90
1429;DHT22;708;51.442;7.016;2022-12-07T11:46:29;10.10;99.90
1429;DHT22;708;51.442;7.016;2022-12-07T11:49:07;10.10;99.90
1429;DHT22;708;51.442;7.016;2022-12-07T11:51:38;10.20;99.90
1429;DHT22;708;51.442;7.016;2022-12-07T11:54:12;10.30;99.90
1429;DHT22;708;51.442;7.016;2022-12-07T11:56:41;10.30;94.30
1429;DHT22;708;51.442;7.016;2022-12-07T11:59:12;10.40;15.70
1429;DHT22;708;51.442;7.016;2022-12-07T12:01:52;10.50;1.00
1429;DHT22;708;51.442;7.016;2022-12-07T12:04:34;10.50;1.00
1429;DHT22;708;51.442;7.016;2022-12-07T12:07:14;10.60;1.00
1429;DHT22;708;51.442;7.016;2022-12-07T12:09:48;10.50;1.00
1429;DHT22;708;51.442;7.016;2022-12-07T12:12:27;10.60;99.90
1429;DHT22;708;51.442;7.016;2022-12-07T12:15:08;10.50;99.90
1429;DHT22;708;51.442;7.016;2022-12-07T12:17:54;10.50;99.90
1429;DHT22;708;51.442;7.016;2022-12-07T12:20:28;10.40;1.00
1429;DHT22;708;51.442;7.016;2022-12-07T12:23:00;10.30;1.00
1429;DHT22;708;51.442;7.016;2022-12-07T12:25:29;10.40;99.90
1429;DHT22;708;51.442;7.016;2022-12-07T12:27:59;10.40;1.00
1429;DHT22;708;51.442;7.016;2022-12-07T12:30:34;10.40;1.00
1429;DHT22;708;51.442;7.016;2022-12-07T12:33:04;10.40;99.90
1429;DHT22;708;51.442;7.016;2022-12-07T12:35:33;10.40;99.90
1429;DHT22;708;51.442;7.016;2022-12-07T12:38:30;10.40;99.90
1429;DHT22;708;51.442;7.016;2022-12-07T12:40:59;10.30;1.00
1429;DHT22;708;51.442;7.016;2022-12-07T12:43:51;10.30;99.90
1429;DHT22;708;51.442;7.016;2022-12-07T12:46:49;10.20;1.00
1429;DHT22;708;51.442;7.016;2022-12-07T12:49:55;10.20;1.00
1429;DHT22;708;51.442;7.016;2022-12-07T12:52:55;10.20;1.00
1429;DHT22;708;51.442;7.016;2022-12-07T12:58:33;10.10;1.00
1429;DHT22;708;51.442;7.016;2022-12-07T13:04:39;10.20;1.00
1429;DHT22;708;51.442;7.016;2022-12-07T13:07:13;10.20;1.00
1429;DHT22;708;51.442;7.016;2022-12-07T13:09:59;10.30;1.00
1429;DHT22;708;51.442;7.016;2022-12-07T13:12:29;10.30;1.00
1429;DHT22;708;51.442;7.016;2022-12-07T13:14:58;10.10;1.00
1429;DHT22;708;51.442;7.016;2022-12-07T13:17:57;10.20;1.00
1429;DHT22;708;51.442;7.016;2022-12-07T13:21:00;10.10;1.00
1429;DHT22;708;51.442;7.016;2022-12-07T13:23:55;10.20;1.00
1429;DHT22;708;51.442;7.016;2022-12-07T13:26:33;10.10;1.00
1429;DHT22;708;51.442;7.016;2022-12-07T13:29:09;10.00;1.00
1429;DHT22;708;51.442;7.016;2022-12-07T13:31:39;10.00;6.50
1429;DHT22;708;51.442;7.016;2022-12-07T13:34:29;9.90;31.30
1429;DHT22;708;51.442;7.016;2022-12-07T13:36:57;9.90;55.00
1429;DHT22;708;51.442;7.016;2022-12-07T13:39:28;9.90;45.10
1429;DHT22;708;51.442;7.016;2022-12-07T13:41:57;9.80;31.40
1429;DHT22;708;51.442;7.016;2022-12-07T13:44:25;9.70;43.40
1429;DHT22;708;51.442;7.016;2022-12-07T13:47:03;9.60;59.30
1429;DHT22;708;51.442;7.016;2022-12-07T13:49:44;9.50;99.90
1429;DHT22;708;51.442;7.016;2022-12-07T13:52:15;9.50;99.90
1429;DHT22;708;51.442;7.016;2022-12-07T13:54:49;9.50;99.90
1429;DHT22;708;51.442;7.016;2022-12-07T13:57:16;9.50;99.90
1429;DHT22;708;51.442;7.016;2022-12-07T13:59:43;9.50;99.90
1429;DHT22;708;51.442;7.016;2022-12-07T14:02:21;9.50;99.90
1429;DHT22;708;51.442;7.016;2022-12-07T14:04:49;9.50;99.90
1429;DHT22;708;51.442;7.016;2022-12-07T14:07:20;9.50;99.90
1429;DHT22;708;51.442;7.016;2022-12-07T14:09:56;9.40;99.90
1429;DHT22;708;51.442;7.016;2022-12-07T14:12:24;9.30;99.90
1429;DHT22;708;51.442;7.016;2022-12-07T14:14:52;9.20;99.90
1429;DHT22;708;51.442;7.016;2022-12-07T14:17:22;9.10;99.90
1429;DHT22;708;51.442;7.016;2022-12-07T14:19:51;9.10;99.90
1429;DHT22;708;51.442;7.016;2022-12-07T14:22:24;8.90;99.90
1429;DHT22;708;51.442;7.016;2022-12-07T14:25:00;8.90;99.90
1429;DHT22;708;51.442;7.016;2022-12-07T14:27:31;8.80;99.90
1429;DHT22;708;51.442;7.016;2022-12-07T14:30:00;8.80;99.90
1429;DHT22;708;51.442;7.016;2022-12-07T14:32:28;8.70;99.90
1429;DHT22;708;51.442;7.016;2022-12-07T14:34:58;8.70;99.90
1429;DHT22;708;51.442;7.016;2022-12-07T14:37:26;8.70;1.00
1429;DHT22;708;51.442;7.016;2022-12-07T14:39:54;8.50;1.00
1429;DHT22;708;51.442;7.016;2022-12-07T14:42:24;8.50;1.00
1429;DHT22;708;51.442;7.016;2022-12-07T14:44:51;8.40;1.00
1429;DHT22;708;51.442;7.016;2022-12-07T14:47:18;8.30;1.00
1429;DHT22;708;51.442;7.016;2022-12-07T14:49:46;8.20;1.00
1429;DHT22;708;51.442;7.016;2022-12-07T14:52:15;8.20;1.00
1429;DHT22;708;51.442;7.016;2022-12-07T14:54:43;8.10;1.00
1429;DHT22;708;51.442;7.016;2022-12-07T14:57:11;8.10;1.00
1429;DHT22;708;51.442;7.016;2022-12-07T14:59:39;8.00;1.00
1429;DHT22;708;51.442;7.016;2022-12-07T15:02:06;8.00;1.00
1429;DHT22;708;51.442;7.016;2022-12-07T15:04:33;7.90;1.00
1429;DHT22;708;51.442;7.016;2022-12-07T15:07:02;7.90;1.00
1429;DHT22;708;51.442;7.016;2022-12-07T15:09:29;7.80;1.00
1429;DHT22;708;51.442;7.016;2022-12-07T15:11:56;7.80;1.00
1429;DHT22;708;51.442;7.016;2022-12-07T15:14:23;7.80;1.00
1429;DHT22;708;51.442;7.016;2022-12-07T15:16:51;7.70;1.00
1429;DHT22;708;51.442;7.016;2022-12-07T15:19:20;7.70;1.00
1429;DHT22;708;51.442;7.016;2022-12-07T15:21:48;7.70;1.00
1429;DHT22;708;51.442;7.016;2022-12-07T15:24:18;7.60;1.00
1429;DHT22;708;51.442;7.016;2022-12-07T15:26:45;7.60;1.00
1429;DHT22;708;51.442;7.016;2022-12-07T15:29:12;7.60;1.00
1429;DHT22;708;51.442;7.016;2022-12-07T15:31:40;7.60;1.00
1429;DHT22;708;51.442;7.016;2022-12-07T15:34:09;7.60;1.00
1429;DHT22;708;51.442;7.016;2022-12-07T15:36:35;7.60;1.00
1429;DHT22;708;51.442;7.016;2022-12-07T15:39:02;7.60;1.00
1429;DHT22;708;51.442;7.016;2022-12-07T15:41:29;7.60;1.00
1429;DHT22;708;51.442;7.016;2022-12-07T15:43:56;7.70;1.00
1429;DHT22;708;51.442;7.016;2022-12-07T15:46:41;7.50;1.00
1429;DHT22;708;51.442;7.016;2022-12-07T15:49:12;7.60;1.00
1429;DHT22;708;51.442;7.016;2022-12-07T15:51:40;7.60;1.00
1429;DHT22;708;51.442;7.016;2022-12-07T15:54:11;7.70;1.00
1429;DHT22;708;51.442;7.016;2022-12-07T15:56:38;7.70;1.00
1429;DHT22;708;51.442;7.016;2022-12-07T15:59:05;7.70;1.00
1429;DHT22;708;51.442;7.016;2022-12-07T16:01:32;7.80;1.00
1429;DHT22;708;51.442;7.016;2022-12-07T16:03:58;7.80;1.00
1429;DHT22;708;51.442;7.016;2022-12-07T16:06:27;7.80;1.00
1429;DHT22;708;51.442;7.016;2022-12-07T16:08:54;7.90;1.00
1429;DHT22;708;51.442;7.016;2022-12-07T16:11:21;7.90;1.00
1429;DHT22;708;51.442;7.016;2022-12-07T16:13:48;7.90;1.00
1429;DHT22;708;51.442;7.016;2022-12-07T16:16:17;8.00;1.00
1429;DHT22;708;51.442;7.016;2022-12-07T16:18:45;7.90;1.00
1429;DHT22;708;51.442;7.016;2022-12-07T16:21:13;8.00;1.00
1429;DHT22;708;51.442;7.016;2022-12-07T16:23:48;8.00;1.00
1429;DHT22;708;51.442;7.016;2022-12-07T16:26:17;8.00;1.00
1429;DHT22;708;51.442;7.016;2022-12-07T16:28:44;8.00;1.00
1429;DHT22;708;51.442;7.016;2022-12-07T16:31:13;8.10;1.00
1429;DHT22;708;51.442;7.016;2022-12-07T16:33:41;8.10;1.00
1429;DHT22;708;51.442;7.016;2022-12-07T16:36:10;8.10;1.00
1429;DHT22;708;51.442;7.016;2022-12-07T16:38:37;8.20;1.00
1429;DHT22;708;51.442;7.016;2022-12-07T16:41:06;8.20;1.00
1429;DHT22;708;51.442;7.016;2022-12-07T16:43:34;8.20;1.00
1429;DHT22;708;51.442;7.016;2022-12-07T16:46:01;8.20;1.00
1429;DHT22;708;51.442;7.016;2022-12-07T16:48:28;8.20;1.00
1429;DHT22;708;51.442;7.016;2022-12-07T16:50:55;8.20;1.00
1429;DHT22;708;51.442;7.016;2022-12-07T16:53:23;8.30;1.00
1429;DHT22;708;51.442;7.016;2022-12-07T16:55:51;8.30;1.00
1429;DHT22;708;51.442;7.016;2022-12-07T16:58:22;8.30;1.00
1429;DHT22;708;51.442;7.016;2022-12-07T17:00:52;8.30;1.00
1429;DHT22;708;51.442;7.016;2022-12-07T17:03:19;8.30;1.00
1429;DHT22;708;51.442;7.016;2022-12-07T17:05:46;8.40;1.00
1429;DHT22;708;51.442;7.016;2022-12-07T17:08:14;8.40;1.00
1429;DHT22;708;51.442;7.016;2022-12-07T17:10:43;8.40;1.00
1429;DHT22;708;51.442;7.016;2022-12-07T17:13:11;8.40;1.00
1429;DHT22;708;51.442;7.016;2022-12-07T17:16:02;8.50;1.00